sensor_id;sensor_type;location;lat;lon;timestamp;temperature;humidity
21246;DHT22;10781;50.928;4.440;2023-07-31T00:00:47;17.60;99.90
21246;DHT22;10781;50.928;4.440;2023-07-31T00:03:13;17.60;99.90
21246;DHT22;10781;50.928;4.440;2023-07-31T00:05:38;17.60;99.90
21246;DHT22;10781;50.928;4.440;2023-07-31T00:08:04;17.80;99.90
21246;DHT22;10781;50.928;4.440;2023-07-31T00:10:29;17.90;99.90
21246;DHT22;10781;50.928;4.440;2023-07-31T00:12:55;17.90;99.90
21246;DHT22;10781;50.928;4.440;2023-07-31T00:15:21;17.80;99.90
21246;DHT22;10781;50.928;4.440;2023-07-31T00:17:46;17.80;99.90
21246;DHT22;10781;50.928;4.440;2023-07-31T00:20:13;17.90;99.90
21246;DHT22;10781;50.928;4.440;2023-07-31T00:22:38;17.90;99.90
21246;DHT22;10781;50.928;4.440;2023-07-31T00:25:04;18.00;99.90
21246;DHT22;10781;50.928;4.440;2023-07-31T00:27:32;18.10;99.90
21246;DHT22;10781;50.928;4.440;2023-07-31T00:29:57;17.90;99.90
21246;DHT22;10781;50.928;4.440;2023-07-31T00:32:23;17.90;99.90
21246;DHT22;10781;50.928;4.440;2023-07-31T00:34:49;18.00;99.90
21246;DHT22;10781;50.928;4.440;2023-07-31T00:37:14;18.10;99.90
21246;DHT22;10781;50.928;4.440;2023-07-31T00:39:41;18.10;99.90
21246;DHT22;10781;50.928;4.440;2023-07-31T00:42:06;18.10;99.90
21246;DHT22;10781;50.928;4.440;2023-07-31T00:44:32;18.30;99.90
21246;DHT22;10781;50.928;4.440;2023-07-31T00:46:58;18.30;99.90
21246;DHT22;10781;50.928;4.440;2023-07-31T00:49:25;18.20;99.90
21246;DHT22;10781;50.928;4.440;2023-07-31T00:51:52;18.20;99.90
21246;DHT22;10781;50.928;4.440;2023-07-31T00:54:18;18.30;99.90
21246;DHT22;10781;50.928;4.440;2023-07-31T00:56:45;18.20;99.90
21246;DHT22;10781;50.928;4.440;2023-07-31T00:59:11;18.20;99.90
21246;DHT22;10781;50.928;4.440;2023-07-31T01:01:38;18.20;99.90
21246;DHT22;10781;50.928;4.440;2023-07-31T01:04:04;18.10;99.90
21246;DHT22;10781;50.928;4.440;2023-07-31T01:06:48;18.10;99.90
21246;DHT22;10781;50.928;4.440;2023-07-31T01:12:02;18.20;99.90
21246;DHT22;10781;50.928;4.440;2023-07-31T01:14:28;18.30;99.90
21246;DHT22;10781;50.928;4.440;2023-07-31T01:16:54;18.30;99.90
21246;DHT22;10781;50.928;4.440;2023-07-31T01:19:23;18.20;99.90
21246;DHT22;10781;50.928;4.440;2023-07-31T01:21:57;18.10;99.90
21246;DHT22;10781;50.928;4.440;2023-07-31T01:27:23;18.10;99.90
21246;DHT22;10781;50.928;4.440;2023-07-31T01:29:59;18.10;99.90
21246;DHT22;10781;50.928;4.440;2023-07-31T01:32:28;18.00;99.90
21246;DHT22;10781;50.928;4.440;2023-07-31T01:34:54;18.00;99.90
21246;DHT22;10781;50.928;4.440;2023-07-31T01:37:20;18.10;99.90
21246;DHT22;10781;50.928;4.440;2023-07-31T01:39:46;18.10;99.90
21246;DHT22;10781;50.928;4.440;2023-07-31T01:42:11;18.10;99.90
21246;DHT22;10781;50.928;4.440;2023-07-31T01:44:37;18.20;99.90
21246;DHT22;10781;50.928;4.440;2023-07-31T01:47:02;18.40;99.90
21246;DHT22;10781;50.928;4.440;2023-07-31T01:49:28;18.30;99.90
21246;DHT22;10781;50.928;4.440;2023-07-31T01:51:54;18.20;99.90
21246;DHT22;10781;50.928;4.440;2023-07-31T01:54:19;18.10;99.90
21246;DHT22;10781;50.928;4.440;2023-07-31T01:56:45;18.20;99.90
21246;DHT22;10781;50.928;4.440;2023-07-31T01:59:10;18.30;99.90
21246;DHT22;10781;50.928;4.440;2023-07-31T02:01:36;18.30;99.90
21246;DHT22;10781;50.928;4.440;2023-07-31T02:04:02;18.30;99.90
21246;DHT22;10781;50.928;4.440;2023-07-31T02:06:28;18.40;99.90
21246;DHT22;10781;50.928;4.440;2023-07-31T02:08:53;18.40;99.90
21246;DHT22;10781;50.928;4.440;2023-07-31T02:11:19;18.40;99.90
21246;DHT22;10781;50.928;4.440;2023-07-31T02:13:44;18.40;99.90
21246;DHT22;10781;50.928;4.440;2023-07-31T02:16:10;18.40;99.90
21246;DHT22;10781;50.928;4.440;2023-07-31T02:18:36;18.50;99.90
21246;DHT22;10781;50.928;4.440;2023-07-31T02:21:02;18.60;99.90
21246;DHT22;10781;50.928;4.440;2023-07-31T02:23:27;18.50;99.90
21246;DHT22;10781;50.928;4.440;2023-07-31T02:25:53;18.30;99.90
21246;DHT22;10781;50.928;4.440;2023-07-31T02:28:18;18.30;99.90
21246;DHT22;10781;50.928;4.440;2023-07-31T02:30:45;18.40;99.90
21246;DHT22;10781;50.928;4.440;2023-07-31T02:33:14;18.40;99.90
21246;DHT22;10781;50.928;4.440;2023-07-31T02:35:40;18.50;99.90
21246;DHT22;10781;50.928;4.440;2023-07-31T02:38:06;18.50;99.90
21246;DHT22;10781;50.928;4.440;2023-07-31T02:40:31;18.60;99.90
21246;DHT22;10781;50.928;4.440;2023-07-31T02:42:57;18.50;99.90
21246;DHT22;10781;50.928;4.440;2023-07-31T02:45:23;18.60;99.90
21246;DHT22;10781;50.928;4.440;2023-07-31T02:47:48;18.60;99.90
21246;DHT22;10781;50.928;4.440;2023-07-31T02:50:14;18.60;99.90
21246;DHT22;10781;50.928;4.440;2023-07-31T02:52:39;18.50;99.90
21246;DHT22;10781;50.928;4.440;2023-07-31T02:55:06;18.60;99.90
21246;DHT22;10781;50.928;4.440;2023-07-31T02:57:32;18.60;99.90
21246;DHT22;10781;50.928;4.440;2023-07-31T02:59:57;18.60;99.90
21246;DHT22;10781;50.928;4.440;2023-07-31T03:02:23;18.60;99.90
21246;DHT22;10781;50.928;4.440;2023-07-31T03:04:49;18.70;99.90
21246;DHT22;10781;50.928;4.440;2023-07-31T03:07:14;18.50;99.90
21246;DHT22;10781;50.928;4.440;2023-07-31T03:09:40;18.40;99.90
21246;DHT22;10781;50.928;4.440;2023-07-31T03:12:06;18.30;99.90
21246;DHT22;10781;50.928;4.440;2023-07-31T03:14:32;18.20;99.90
21246;DHT22;10781;50.928;4.440;2023-07-31T03:16:57;18.10;99.90
21246;DHT22;10781;50.928;4.440;2023-07-31T03:19:23;18.20;99.90
21246;DHT22;10781;50.928;4.440;2023-07-31T03:21:48;18.20;99.90
21246;DHT22;10781;50.928;4.440;2023-07-31T03:24:14;18.10;99.90
21246;DHT22;10781;50.928;4.440;2023-07-31T03:26:40;18.10;99.90
21246;DHT22;10781;50.928;4.440;2023-07-31T03:29:07;18.10;99.90
21246;DHT22;10781;50.928;4.440;2023-07-31T03:31:33;18.20;99.90
21246;DHT22;10781;50.928;4.440;2023-07-31T03:33:58;18.20;99.90
21246;DHT22;10781;50.928;4.440;2023-07-31T03:36:24;18.10;99.90
21246;DHT22;10781;50.928;4.440;2023-07-31T03:38:51;18.10;99.90
21246;DHT22;10781;50.928;4.440;2023-07-31T03:41:17;18.00;99.90
21246;DHT22;10781;50.928;4.440;2023-07-31T03:43:42;17.90;99.90
21246;DHT22;10781;50.928;4.440;2023-07-31T03:46:08;18.00;99.90
21246;DHT22;10781;50.928;4.440;2023-07-31T03:48:34;17.90;99.90
21246;DHT22;10781;50.928;4.440;2023-07-31T03:50:59;17.90;99.90
21246;DHT22;10781;50.928;4.440;2023-07-31T03:53:25;17.80;99.90
21246;DHT22;10781;50.928;4.440;2023-07-31T03:55:50;17.80;99.90
21246;DHT22;10781;50.928;4.440;2023-07-31T03:58:16;17.80;99.90
21246;DHT22;10781;50.928;4.440;2023-07-31T04:00:42;17.60;99.90
21246;DHT22;10781;50.928;4.440;2023-07-31T04:03:07;17.50;99.90
21246;DHT22;10781;50.928;4.440;2023-07-31T04:05:33;17.50;99.90
21246;DHT22;10781;50.928;4.440;2023-07-31T04:07:59;17.50;99.90
21246;DHT22;10781;50.928;4.440;2023-07-31T04:10:24;17.40;99.90
21246;DHT22;10781;50.928;4.440;2023-07-31T04:12:50;17.50;99.90
21246;DHT22;10781;50.928;4.440;2023-07-31T04:15:16;17.50;99.90
21246;DHT22;10781;50.928;4.440;2023-07-31T04:17:42;17.50;99.90
21246;DHT22;10781;50.928;4.440;2023-07-31T04:20:08;17.40;99.90
21246;DHT22;10781;50.928;4.440;2023-07-31T04:22:33;17.40;99.90
21246;DHT22;10781;50.928;4.440;2023-07-31T04:24:59;17.40;99.90
21246;DHT22;10781;50.928;4.440;2023-07-31T04:27:25;17.40;99.90
21246;DHT22;10781;50.928;4.440;2023-07-31T04:29:50;17.30;99.90
21246;DHT22;10781;50.928;4.440;2023-07-31T04:32:16;17.30;99.90
21246;DHT22;10781;50.928;4.440;2023-07-31T04:34:42;17.30;99.90
21246;DHT22;10781;50.928;4.440;2023-07-31T04:37:08;17.20;99.90
21246;DHT22;10781;50.928;4.440;2023-07-31T04:39:34;17.30;99.90
21246;DHT22;10781;50.928;4.440;2023-07-31T04:41:59;17.30;99.90
21246;DHT22;10781;50.928;4.440;2023-07-31T04:44:25;17.40;99.90
21246;DHT22;10781;50.928;4.440;2023-07-31T04:46:51;17.60;99.90
21246;DHT22;10781;50.928;4.440;2023-07-31T04:49:16;17.60;99.90
21246;DHT22;10781;50.928;4.440;2023-07-31T04:51:42;17.60;99.90
21246;DHT22;10781;50.928;4.440;2023-07-31T04:54:07;17.50;99.90
21246;DHT22;10781;50.928;4.440;2023-07-31T04:56:33;17.50;99.90
21246;DHT22;10781;50.928;4.440;2023-07-31T04:58:59;17.60;99.90
21246;DHT22;10781;50.928;4.440;2023-07-31T05:01:25;17.70;99.90
21246;DHT22;10781;50.928;4.440;2023-07-31T05:03:50;17.70;99.90
21246;DHT22;10781;50.928;4.440;2023-07-31T05:06:16;17.70;99.90
21246;DHT22;10781;50.928;4.440;2023-07-31T05:08:42;17.70;99.90
21246;DHT22;10781;50.928;4.440;2023-07-31T05:11:07;17.70;99.90
21246;DHT22;10781;50.928;4.440;2023-07-31T05:13:33;17.60;99.90
21246;DHT22;10781;50.928;4.440;2023-07-31T05:15:59;17.50;99.90
21246;DHT22;10781;50.928;4.440;2023-07-31T05:18:24;17.60;99.90
21246;DHT22;10781;50.928;4.440;2023-07-31T05:20:50;17.60;99.90
21246;DHT22;10781;50.928;4.440;2023-07-31T05:23:15;17.60;99.90
21246;DHT22;10781;50.928;4.440;2023-07-31T05:25:41;17.60;99.90
21246;DHT22;10781;50.928;4.440;2023-07-31T05:28:07;17.60;99.90
21246;DHT22;10781;50.928;4.440;2023-07-31T05:30:32;17.50;99.90
21246;DHT22;10781;50.928;4.440;2023-07-31T05:32:58;17.50;99.90
21246;DHT22;10781;50.928;4.440;2023-07-31T05:35:23;17.50;99.90
21246;DHT22;10781;50.928;4.440;2023-07-31T05:37:49;17.40;99.90
21246;DHT22;10781;50.928;4.440;2023-07-31T05:40:15;17.30;99.90
21246;DHT22;10781;50.928;4.440;2023-07-31T05:42:40;17.30;99.90
21246;DHT22;10781;50.928;4.440;2023-07-31T05:45:07;17.30;99.90
21246;DHT22;10781;50.928;4.440;2023-07-31T05:47:33;17.30;99.90
21246;DHT22;10781;50.928;4.440;2023-07-31T05:49:58;17.30;99.90
21246;DHT22;10781;50.928;4.440;2023-07-31T05:52:24;17.20;99.90
21246;DHT22;10781;50.928;4.440;2023-07-31T05:54:50;17.20;99.90
21246;DHT22;10781;50.928;4.440;2023-07-31T05:57:16;17.20;99.90
21246;DHT22;10781;50.928;4.440;2023-07-31T05:59:41;17.10;99.90
21246;DHT22;10781;50.928;4.440;2023-07-31T06:02:07;17.10;99.90
21246;DHT22;10781;50.928;4.440;2023-07-31T06:04:33;17.20;99.90
21246;DHT22;10781;50.928;4.440;2023-07-31T06:06:59;17.30;99.90
21246;DHT22;10781;50.928;4.440;2023-07-31T06:09:25;17.30;99.90
21246;DHT22;10781;50.928;4.440;2023-07-31T06:11:51;17.40;99.90
21246;DHT22;10781;50.928;4.440;2023-07-31T06:14:17;17.40;99.90
21246;DHT22;10781;50.928;4.440;2023-07-31T06:16:44;17.50;99.90
21246;DHT22;10781;50.928;4.440;2023-07-31T06:19:10;17.50;99.90
21246;DHT22;10781;50.928;4.440;2023-07-31T06:21:36;17.50;99.90
21246;DHT22;10781;50.928;4.440;2023-07-31T06:24:08;17.50;99.90
21246;DHT22;10781;50.928;4.440;2023-07-31T06:26:33;17.50;99.90
21246;DHT22;10781;50.928;4.440;2023-07-31T06:28:59;17.50;99.90
21246;DHT22;10781;50.928;4.440;2023-07-31T06:31:25;17.50;99.90
21246;DHT22;10781;50.928;4.440;2023-07-31T06:33:51;17.50;99.90
21246;DHT22;10781;50.928;4.440;2023-07-31T06:36:17;17.50;99.90
21246;DHT22;10781;50.928;4.440;2023-07-31T06:38:43;17.60;99.90
21246;DHT22;10781;50.928;4.440;2023-07-31T06:41:08;17.60;99.90
21246;DHT22;10781;50.928;4.440;2023-07-31T06:43:36;17.60;99.90
21246;DHT22;10781;50.928;4.440;2023-07-31T06:46:06;17.70;99.90
21246;DHT22;10781;50.928;4.440;2023-07-31T06:48:32;17.60;99.90
21246;DHT22;10781;50.928;4.440;2023-07-31T06:50:58;17.70;99.90
21246;DHT22;10781;50.928;4.440;2023-07-31T06:53:24;17.80;99.90
21246;DHT22;10781;50.928;4.440;2023-07-31T06:55:49;18.00;99.90
21246;DHT22;10781;50.928;4.440;2023-07-31T06:58:17;18.00;99.90
21246;DHT22;10781;50.928;4.440;2023-07-31T07:00:43;18.20;99.90
21246;DHT22;10781;50.928;4.440;2023-07-31T07:03:08;18.40;99.90
21246;DHT22;10781;50.928;4.440;2023-07-31T07:05:34;18.50;99.90
21246;DHT22;10781;50.928;4.440;2023-07-31T07:08:00;18.70;99.90
21246;DHT22;10781;50.928;4.440;2023-07-31T07:10:25;18.90;99.90
21246;DHT22;10781;50.928;4.440;2023-07-31T07:12:51;19.00;99.90
21246;DHT22;10781;50.928;4.440;2023-07-31T07:15:17;19.10;99.90
21246;DHT22;10781;50.928;4.440;2023-07-31T07:17:42;19.30;99.90
21246;DHT22;10781;50.928;4.440;2023-07-31T07:20:08;19.50;99.90
21246;DHT22;10781;50.928;4.440;2023-07-31T07:22:34;19.70;99.90
21246;DHT22;10781;50.928;4.440;2023-07-31T07:25:00;19.70;99.90
21246;DHT22;10781;50.928;4.440;2023-07-31T07:27:25;19.70;99.90
21246;DHT22;10781;50.928;4.440;2023-07-31T07:29:51;19.80;99.90
21246;DHT22;10781;50.928;4.440;2023-07-31T07:32:21;19.90;99.90
21246;DHT22;10781;50.928;4.440;2023-07-31T07:34:48;19.80;99.90
21246;DHT22;10781;50.928;4.440;2023-07-31T07:37:14;19.60;99.90
21246;DHT22;10781;50.928;4.440;2023-07-31T07:39:39;19.30;99.90
21246;DHT22;10781;50.928;4.440;2023-07-31T07:42:05;19.20;99.90
21246;DHT22;10781;50.928;4.440;2023-07-31T07:44:31;19.20;99.90
21246;DHT22;10781;50.928;4.440;2023-07-31T07:46:57;19.10;99.90
21246;DHT22;10781;50.928;4.440;2023-07-31T07:49:22;19.20;99.90
21246;DHT22;10781;50.928;4.440;2023-07-31T07:51:48;19.20;99.90
21246;DHT22;10781;50.928;4.440;2023-07-31T07:54:15;19.20;99.90
21246;DHT22;10781;50.928;4.440;2023-07-31T07:56:42;19.30;99.90
21246;DHT22;10781;50.928;4.440;2023-07-31T07:59:08;19.20;99.90
21246;DHT22;10781;50.928;4.440;2023-07-31T08:01:34;19.10;99.90
21246;DHT22;10781;50.928;4.440;2023-07-31T08:03:59;19.20;99.90
21246;DHT22;10781;50.928;4.440;2023-07-31T08:06:25;19.20;99.90
21246;DHT22;10781;50.928;4.440;2023-07-31T08:08:51;19.30;99.90
21246;DHT22;10781;50.928;4.440;2023-07-31T08:11:16;19.40;99.90
21246;DHT22;10781;50.928;4.440;2023-07-31T08:13:42;19.50;99.90
21246;DHT22;10781;50.928;4.440;2023-07-31T08:16:08;19.70;99.90
21246;DHT22;10781;50.928;4.440;2023-07-31T08:18:34;20.00;99.90
21246;DHT22;10781;50.928;4.440;2023-07-31T08:21:01;20.00;99.90
21246;DHT22;10781;50.928;4.440;2023-07-31T08:23:26;20.10;99.90
21246;DHT22;10781;50.928;4.440;2023-07-31T08:25:52;20.10;99.90
21246;DHT22;10781;50.928;4.440;2023-07-31T08:28:17;20.10;99.90
21246;DHT22;10781;50.928;4.440;2023-07-31T08:30:43;20.00;99.90
21246;DHT22;10781;50.928;4.440;2023-07-31T08:33:09;19.80;99.90
21246;DHT22;10781;50.928;4.440;2023-07-31T08:35:34;19.80;99.90
21246;DHT22;10781;50.928;4.440;2023-07-31T08:38:00;19.60;99.90
21246;DHT22;10781;50.928;4.440;2023-07-31T08:40:25;19.60;99.90
21246;DHT22;10781;50.928;4.440;2023-07-31T08:42:54;19.50;99.90
21246;DHT22;10781;50.928;4.440;2023-07-31T08:45:22;19.50;99.90
21246;DHT22;10781;50.928;4.440;2023-07-31T08:47:50;19.50;99.90
21246;DHT22;10781;50.928;4.440;2023-07-31T08:50:18;19.50;99.90
21246;DHT22;10781;50.928;4.440;2023-07-31T08:52:45;19.60;99.90
21246;DHT22;10781;50.928;4.440;2023-07-31T08:55:11;19.80;99.90
21246;DHT22;10781;50.928;4.440;2023-07-31T08:57:38;20.10;99.90
21246;DHT22;10781;50.928;4.440;2023-07-31T09:00:05;20.10;99.90
21246;DHT22;10781;50.928;4.440;2023-07-31T09:03:01;19.80;99.90
21246;DHT22;10781;50.928;4.440;2023-07-31T09:05:29;19.80;99.90
21246;DHT22;10781;50.928;4.440;2023-07-31T09:07:55;19.80;99.90
21246;DHT22;10781;50.928;4.440;2023-07-31T09:10:21;19.80;99.90
21246;DHT22;10781;50.928;4.440;2023-07-31T09:12:49;20.10;99.90
21246;DHT22;10781;50.928;4.440;2023-07-31T09:15:16;20.00;99.90
21246;DHT22;10781;50.928;4.440;2023-07-31T09:17:42;20.10;99.90
21246;DHT22;10781;50.928;4.440;2023-07-31T09:20:18;20.10;99.90
21246;DHT22;10781;50.928;4.440;2023-07-31T09:22:45;20.10;99.90
21246;DHT22;10781;50.928;4.440;2023-07-31T09:25:29;20.20;99.90
21246;DHT22;10781;50.928;4.440;2023-07-31T09:27:58;20.30;99.90
21246;DHT22;10781;50.928;4.440;2023-07-31T09:30:24;20.40;99.90
21246;DHT22;10781;50.928;4.440;2023-07-31T09:32:50;21.20;99.90
21246;DHT22;10781;50.928;4.440;2023-07-31T09:35:21;22.20;99.90
21246;DHT22;10781;50.928;4.440;2023-07-31T09:37:51;22.60;99.90
21246;DHT22;10781;50.928;4.440;2023-07-31T09:40:30;23.20;99.90
21246;DHT22;10781;50.928;4.440;2023-07-31T09:42:58;23.10;99.90
21246;DHT22;10781;50.928;4.440;2023-07-31T09:45:24;23.00;99.90
21246;DHT22;10781;50.928;4.440;2023-07-31T09:47:50;22.70;99.90
21246;DHT22;10781;50.928;4.440;2023-07-31T09:50:16;22.70;99.90
21246;DHT22;10781;50.928;4.440;2023-07-31T09:52:42;22.60;99.90
21246;DHT22;10781;50.928;4.440;2023-07-31T09:55:09;22.30;99.90
21246;DHT22;10781;50.928;4.440;2023-07-31T09:57:40;21.90;99.90
21246;DHT22;10781;50.928;4.440;2023-07-31T10:00:07;21.60;99.90
21246;DHT22;10781;50.928;4.440;2023-07-31T10:02:35;21.50;99.90
21246;DHT22;10781;50.928;4.440;2023-07-31T10:05:03;21.30;99.90
21246;DHT22;10781;50.928;4.440;2023-07-31T10:07:31;20.90;99.90
21246;DHT22;10781;50.928;4.440;2023-07-31T10:10:00;20.80;99.90
21246;DHT22;10781;50.928;4.440;2023-07-31T10:12:27;20.80;99.90
21246;DHT22;10781;50.928;4.440;2023-07-31T10:14:56;20.60;99.90
21246;DHT22;10781;50.928;4.440;2023-07-31T10:17:23;20.30;99.90
21246;DHT22;10781;50.928;4.440;2023-07-31T10:19:49;20.40;99.90
21246;DHT22;10781;50.928;4.440;2023-07-31T10:22:16;20.50;99.90
21246;DHT22;10781;50.928;4.440;2023-07-31T10:24:43;20.50;99.90
21246;DHT22;10781;50.928;4.440;2023-07-31T10:27:09;20.40;99.90
21246;DHT22;10781;50.928;4.440;2023-07-31T10:29:37;20.30;99.90
21246;DHT22;10781;50.928;4.440;2023-07-31T10:32:04;20.30;99.90
21246;DHT22;10781;50.928;4.440;2023-07-31T10:34:37;20.40;99.90
21246;DHT22;10781;50.928;4.440;2023-07-31T10:37:30;20.70;99.90
21246;DHT22;10781;50.928;4.440;2023-07-31T10:40:10;20.80;99.90
21246;DHT22;10781;50.928;4.440;2023-07-31T10:42:47;20.80;99.90
21246;DHT22;10781;50.928;4.440;2023-07-31T10:45:14;20.90;99.90
21246;DHT22;10781;50.928;4.440;2023-07-31T10:47:48;20.90;99.90
21246;DHT22;10781;50.928;4.440;2023-07-31T10:50:19;20.90;99.90
21246;DHT22;10781;50.928;4.440;2023-07-31T10:52:55;20.80;99.90
21246;DHT22;10781;50.928;4.440;2023-07-31T10:55:28;20.90;99.90
21246;DHT22;10781;50.928;4.440;2023-07-31T10:57:56;21.10;99.90
21246;DHT22;10781;50.928;4.440;2023-07-31T11:00:28;21.30;99.90
21246;DHT22;10781;50.928;4.440;2023-07-31T11:03:10;21.40;99.90
21246;DHT22;10781;50.928;4.440;2023-07-31T11:05:44;21.50;99.90
21246;DHT22;10781;50.928;4.440;2023-07-31T11:08:13;21.60;99.90
21246;DHT22;10781;50.928;4.440;2023-07-31T11:10:39;21.70;99.90
21246;DHT22;10781;50.928;4.440;2023-07-31T11:13:05;21.80;99.90
21246;DHT22;10781;50.928;4.440;2023-07-31T11:15:31;22.00;99.90
21246;DHT22;10781;50.928;4.440;2023-07-31T11:17:57;21.90;99.90
21246;DHT22;10781;50.928;4.440;2023-07-31T11:20:25;21.90;99.90
21246;DHT22;10781;50.928;4.440;2023-07-31T11:22:52;22.00;99.90
21246;DHT22;10781;50.928;4.440;2023-07-31T11:25:18;22.30;99.90
21246;DHT22;10781;50.928;4.440;2023-07-31T11:27:43;22.60;99.90
21246;DHT22;10781;50.928;4.440;2023-07-31T11:30:10;23.00;99.90
21246;DHT22;10781;50.928;4.440;2023-07-31T11:32:37;23.10;99.90
21246;DHT22;10781;50.928;4.440;2023-07-31T11:35:03;23.00;99.90
21246;DHT22;10781;50.928;4.440;2023-07-31T11:37:44;23.10;99.90
21246;DHT22;10781;50.928;4.440;2023-07-31T11:40:10;23.10;99.90
21246;DHT22;10781;50.928;4.440;2023-07-31T11:42:36;23.30;99.90
21246;DHT22;10781;50.928;4.440;2023-07-31T11:45:04;22.90;99.90
21246;DHT22;10781;50.928;4.440;2023-07-31T11:47:32;22.80;99.90
21246;DHT22;10781;50.928;4.440;2023-07-31T11:50:01;22.40;99.90
21246;DHT22;10781;50.928;4.440;2023-07-31T11:52:28;22.30;99.90
21246;DHT22;10781;50.928;4.440;2023-07-31T11:54:55;22.30;99.90
21246;DHT22;10781;50.928;4.440;2023-07-31T11:57:22;22.20;99.90
21246;DHT22;10781;50.928;4.440;2023-07-31T11:59:48;22.10;99.90
21246;DHT22;10781;50.928;4.440;2023-07-31T12:02:14;22.10;99.90
21246;DHT22;10781;50.928;4.440;2023-07-31T12:04:40;22.10;99.90
21246;DHT22;10781;50.928;4.440;2023-07-31T12:07:06;22.30;99.90
21246;DHT22;10781;50.928;4.440;2023-07-31T12:09:32;22.40;99.90
21246;DHT22;10781;50.928;4.440;2023-07-31T12:11:57;22.80;99.90
21246;DHT22;10781;50.928;4.440;2023-07-31T12:14:29;23.10;99.90
21246;DHT22;10781;50.928;4.440;2023-07-31T12:16:57;23.10;99.90
21246;DHT22;10781;50.928;4.440;2023-07-31T12:19:25;22.70;99.90
21246;DHT22;10781;50.928;4.440;2023-07-31T12:21:53;22.60;99.90
21246;DHT22;10781;50.928;4.440;2023-07-31T12:24:20;22.50;99.90
21246;DHT22;10781;50.928;4.440;2023-07-31T12:26:48;22.20;99.90
21246;DHT22;10781;50.928;4.440;2023-07-31T12:29:13;22.20;99.90
21246;DHT22;10781;50.928;4.440;2023-07-31T12:31:41;22.30;99.90
21246;DHT22;10781;50.928;4.440;2023-07-31T12:34:18;22.70;99.90
21246;DHT22;10781;50.928;4.440;2023-07-31T12:36:46;23.00;99.90
21246;DHT22;10781;50.928;4.440;2023-07-31T12:39:12;23.40;99.90
21246;DHT22;10781;50.928;4.440;2023-07-31T12:41:38;23.70;99.90
21246;DHT22;10781;50.928;4.440;2023-07-31T12:44:03;23.90;99.90
21246;DHT22;10781;50.928;4.440;2023-07-31T12:46:29;23.70;99.90
21246;DHT22;10781;50.928;4.440;2023-07-31T12:48:55;23.80;99.90
21246;DHT22;10781;50.928;4.440;2023-07-31T12:51:20;23.90;99.90
21246;DHT22;10781;50.928;4.440;2023-07-31T12:53:46;23.90;99.90
21246;DHT22;10781;50.928;4.440;2023-07-31T12:56:12;23.90;99.90
21246;DHT22;10781;50.928;4.440;2023-07-31T12:58:38;23.90;99.90
21246;DHT22;10781;50.928;4.440;2023-07-31T13:01:03;23.90;99.90
21246;DHT22;10781;50.928;4.440;2023-07-31T13:03:29;24.00;99.90
21246;DHT22;10781;50.928;4.440;2023-07-31T13:05:55;23.90;99.90
21246;DHT22;10781;50.928;4.440;2023-07-31T13:08:20;23.70;99.90
21246;DHT22;10781;50.928;4.440;2023-07-31T13:10:46;23.40;99.90
21246;DHT22;10781;50.928;4.440;2023-07-31T13:13:12;23.10;99.90
21246;DHT22;10781;50.928;4.440;2023-07-31T13:15:38;23.10;99.90
21246;DHT22;10781;50.928;4.440;2023-07-31T13:18:04;22.60;99.90
21246;DHT22;10781;50.928;4.440;2023-07-31T13:20:29;22.30;99.90
21246;DHT22;10781;50.928;4.440;2023-07-31T13:22:55;21.90;99.90
21246;DHT22;10781;50.928;4.440;2023-07-31T13:25:21;21.70;99.90
21246;DHT22;10781;50.928;4.440;2023-07-31T13:27:46;21.00;99.90
21246;DHT22;10781;50.928;4.440;2023-07-31T13:30:12;20.60;99.90
21246;DHT22;10781;50.928;4.440;2023-07-31T13:32:37;20.30;99.90
21246;DHT22;10781;50.928;4.440;2023-07-31T13:35:06;20.20;99.90
21246;DHT22;10781;50.928;4.440;2023-07-31T13:37:31;20.10;99.90
21246;DHT22;10781;50.928;4.440;2023-07-31T13:39:57;19.80;99.90
21246;DHT22;10781;50.928;4.440;2023-07-31T13:42:23;19.60;99.90
21246;DHT22;10781;50.928;4.440;2023-07-31T13:44:49;19.50;99.90
21246;DHT22;10781;50.928;4.440;2023-07-31T13:47:14;19.50;99.90
21246;DHT22;10781;50.928;4.440;2023-07-31T13:49:40;19.50;99.90
21246;DHT22;10781;50.928;4.440;2023-07-31T13:52:08;19.30;99.90
21246;DHT22;10781;50.928;4.440;2023-07-31T13:54:34;19.20;99.90
21246;DHT22;10781;50.928;4.440;2023-07-31T13:57:00;19.20;99.90
21246;DHT22;10781;50.928;4.440;2023-07-31T13:59:26;19.20;99.90
21246;DHT22;10781;50.928;4.440;2023-07-31T14:01:51;19.10;99.90
21246;DHT22;10781;50.928;4.440;2023-07-31T14:04:17;19.10;99.90
21246;DHT22;10781;50.928;4.440;2023-07-31T14:06:43;19.10;99.90
21246;DHT22;10781;50.928;4.440;2023-07-31T14:09:09;19.20;99.90
21246;DHT22;10781;50.928;4.440;2023-07-31T14:11:35;19.10;99.90
21246;DHT22;10781;50.928;4.440;2023-07-31T14:14:00;19.20;99.90
21246;DHT22;10781;50.928;4.440;2023-07-31T14:16:31;19.10;99.90
21246;DHT22;10781;50.928;4.440;2023-07-31T14:18:56;19.00;99.90
21246;DHT22;10781;50.928;4.440;2023-07-31T14:21:25;19.10;99.90
21246;DHT22;10781;50.928;4.440;2023-07-31T14:23:50;19.00;99.90
21246;DHT22;10781;50.928;4.440;2023-07-31T14:26:16;19.00;99.90
21246;DHT22;10781;50.928;4.440;2023-07-31T14:28:42;18.90;99.90
21246;DHT22;10781;50.928;4.440;2023-07-31T14:31:07;19.00;99.90
21246;DHT22;10781;50.928;4.440;2023-07-31T14:33:33;19.20;99.90
21246;DHT22;10781;50.928;4.440;2023-07-31T14:35:59;19.20;99.90
21246;DHT22;10781;50.928;4.440;2023-07-31T14:38:24;19.30;99.90
21246;DHT22;10781;50.928;4.440;2023-07-31T14:40:51;19.40;99.90
21246;DHT22;10781;50.928;4.440;2023-07-31T14:43:16;19.40;99.90
21246;DHT22;10781;50.928;4.440;2023-07-31T14:45:42;19.30;99.90
21246;DHT22;10781;50.928;4.440;2023-07-31T14:48:07;19.20;99.90
21246;DHT22;10781;50.928;4.440;2023-07-31T14:50:33;19.10;99.90
21246;DHT22;10781;50.928;4.440;2023-07-31T14:52:59;19.20;99.90
21246;DHT22;10781;50.928;4.440;2023-07-31T14:55:25;19.20;99.90
21246;DHT22;10781;50.928;4.440;2023-07-31T14:57:51;19.30;99.90
21246;DHT22;10781;50.928;4.440;2023-07-31T15:00:16;19.30;99.90
21246;DHT22;10781;50.928;4.440;2023-07-31T15:02:42;19.30;99.90
21246;DHT22;10781;50.928;4.440;2023-07-31T15:05:08;19.10;99.90
21246;DHT22;10781;50.928;4.440;2023-07-31T15:07:34;19.10;99.90
21246;DHT22;10781;50.928;4.440;2023-07-31T15:10:03;19.00;99.90
21246;DHT22;10781;50.928;4.440;2023-07-31T15:12:29;18.90;99.90
21246;DHT22;10781;50.928;4.440;2023-07-31T15:14:55;19.00;99.90
21246;DHT22;10781;50.928;4.440;2023-07-31T15:17:20;19.00;99.90
21246;DHT22;10781;50.928;4.440;2023-07-31T15:19:46;19.00;99.90
21246;DHT22;10781;50.928;4.440;2023-07-31T15:22:12;19.00;99.90
21246;DHT22;10781;50.928;4.440;2023-07-31T15:24:37;19.00;99.90
21246;DHT22;10781;50.928;4.440;2023-07-31T15:27:03;19.00;99.90
21246;DHT22;10781;50.928;4.440;2023-07-31T15:29:30;19.00;99.90
21246;DHT22;10781;50.928;4.440;2023-07-31T15:31:55;19.00;99.90